Sao Joao do Piaui, Brazil
Current Conditions -  °F | °C
As of 3:00 PM on Thursday 18 Dec 2014 (Local Time) from SBPL Reporting Station
Scattered Clouds Scattered Clouds  
Wind Chill: 88°   Ceiling: Unl
Heat Index: 93°   Visibility: 6mi
Dew Point: 70°   Wind: 5mph
Humidity: 55%   Direction: 350°N
Pressure: 29.85"   Gusts: NA
Location:  8.36°S, 42.25°W
Report Text: SBPL 181800Z 35004KT 9999 FEW025 SCT090 31/21 Q1011
Loading
Personal Weather Stations






























Interactive Weather Map New forecast layout! Learn more

10-Day Weather Forecast

Advertisements
Track Severe Weather on mobile